Terminal Aerodrome Forecast
Issued by NWS

Home | Current Version | Previous Version | Graphics & Text | Print | Product List | Glossary On
Versions: 1 2 3 4 5 6 7 8 9 10 11 12 13 14 15
000
FTUS43 KIWX 260500
TAFSBN
TAF
KSBN 260532Z 2606/2706 20006KT P6SM BKN250
     FM260800 22004KT 5SM BR VCSH BKN050
     FM261500 25009KT P6SM SCT035 BKN200
     FM262000 32008KT P6SM SCT040=

USA.gov is the U.S. government's official web portal to all federal, state and local government web resources and services.